Time;durP1;ratioP1;P1;durP2;ratioP2;P2;SDS_P1;SDS_P2;PMS_P1;PMS_P2;Temp;Humidity;BMP_temperature;BMP_pressure;BME280_temperature;BME280_humidity;BME280_pressure;Samples;Min_cycle;Max_cycle;Signal;HPM_P1;HPM_P2
2023/03/22 00:00:06;;;;;;;66.43;60.40;;;;;;;21.81;36.27;94701.28;6216084;28;109528;-65
2023/03/22 00:03:11;;;;;;;68.53;62.30;;;;;;;21.80;36.23;94686.41;6235226;27;109208;-66
2023/03/22 00:06:17;;;;;;;65.83;60.03;;;;;;;21.80;36.28;94686.41;6217810;27;108951;-65
2023/03/22 00:09:24;;;;;;;65.07;59.43;;;;;;;21.79;36.11;94689.38;6227681;28;109010;-65
2023/03/22 00:12:30;;;;;;;61.50;56.13;;;;;;;21.79;35.85;94687.50;6230241;28;109279;-65
2023/03/22 00:15:36;;;;;;;62.63;57.10;;;;;;;21.80;36.04;94685.63;6227943;27;109127;-66
2023/03/22 00:18:40;;;;;;;63.33;57.60;;;;;;;21.78;36.04;94690.47;6226935;27;108985;-66
2023/03/22 00:21:46;;;;;;;61.37;55.97;;;;;;;21.78;36.22;94682.50;6214032;28;109943;-66
2023/03/22 00:24:56;;;;;;;59.90;54.70;;;;;;;21.78;36.39;94687.81;6213852;28;109437;-66
2023/03/22 00:28:02;;;;;;;57.07;52.07;;;;;;;21.77;36.22;94687.03;6204628;28;108911;-65
2023/03/22 00:31:09;;;;;;;45.40;41.40;;;;;;;21.73;36.90;94691.44;6238713;27;109012;-65
2023/03/22 00:34:14;;;;;;;43.13;39.30;;;;;;;21.72;37.23;94691.75;6237607;27;109053;-66
2023/03/22 00:37:22;;;;;;;42.03;38.33;;;;;;;21.66;37.22;94685.75;6219779;28;109626;-65
2023/03/22 00:40:32;;;;;;;42.50;38.90;;;;;;;21.68;37.18;94682.81;6207907;28;109202;-65
2023/03/22 00:43:40;;;;;;;40.67;36.93;;;;;;;21.64;37.57;94679.97;6214090;28;110113;-64
2023/03/22 00:46:46;;;;;;;39.53;36.03;;;;;;;21.64;37.47;94679.19;6236819;28;108857;-66
2023/03/22 00:49:53;;;;;;;37.20;33.97;;;;;;;21.58;37.56;94677.78;6206562;27;110201;-64
2023/03/22 00:53:00;;;;;;;38.60;35.27;;;;;;;21.59;37.42;94669.47;6213585;28;109478;-64
2023/03/22 00:56:14;;;;;;;38.20;34.80;;;;;;;21.57;37.72;94677.00;6212455;28;109264;-65
2023/03/22 00:59:20;;;;;;;37.27;34.10;;;;;;;21.57;37.60;94670.88;6229704;28;109631;-65
2023/03/22 01:02:28;;;;;;;37.20;33.90;;;;;;;21.57;37.97;94668.22;6227912;27;109009;-65
2023/03/22 01:05:37;;;;;;;36.93;33.73;;;;;;;21.57;37.71;94668.22;6236256;27;109590;-63
2023/03/22 01:08:44;;;;;;;35.83;32.77;;;;;;;21.58;37.43;94667.13;6237309;27;108973;-65
2023/03/22 01:11:51;;;;;;;35.47;32.40;;;;;;;21.57;37.24;94661.03;6230691;27;109145;-63
2023/03/22 01:14:56;;;;;;;33.70;30.90;;;;;;;21.59;37.32;94658.81;6232304;27;109180;-64
2023/03/22 01:18:06;;;;;;;35.57;32.47;;;;;;;21.58;37.19;94656.47;6236553;27;109180;-64
2023/03/22 01:21:14;;;;;;;34.93;31.83;;;;;;;21.57;37.64;94660.22;6236614;27;110061;-63
2023/03/22 01:24:22;;;;;;;32.40;29.70;;;;;;;21.56;37.40;94651.47;6216229;28;109087;-65
2023/03/22 01:27:32;;;;;;;31.13;28.27;;;;;;;21.52;37.63;94651.31;6234770;28;109183;-63
2023/03/22 01:30:40;;;;;;;30.80;28.20;;;;;;;21.51;37.52;94647.09;6221080;27;108979;-64
2023/03/22 01:33:47;;;;;;;30.50;27.80;;;;;;;21.53;37.60;94644.09;6218650;28;109671;-64
2023/03/22 01:36:55;;;;;;;30.33;27.73;;;;;;;21.50;37.74;94640.16;6222495;28;110174;-63
2023/03/22 01:40:04;;;;;;;29.33;26.80;;;;;;;21.48;37.72;94641.56;6223958;27;109138;-63
2023/03/22 01:43:17;;;;;;;28.80;26.30;;;;;;;21.48;37.50;94644.22;6236359;28;109102;-64
2023/03/22 01:46:26;;;;;;;28.20;25.80;;;;;;;21.48;37.34;94642.34;6228169;27;109666;-64
2023/03/22 01:49:36;;;;;;;27.40;25.00;;;;;;;21.46;37.57;94649.09;6223142;27;109078;-64
2023/03/22 01:52:44;;;;;;;26.80;24.60;;;;;;;21.44;37.84;94641.41;6230681;27;109461;-64
2023/03/22 01:55:52;;;;;;;26.47;24.17;;;;;;;21.44;37.43;94648.63;6234004;28;109196;-64
2023/03/22 01:59:04;;;;;;;26.13;24.00;;;;;;;21.47;37.79;94645.34;6203016;28;110025;-65
2023/03/22 02:02:17;;;;;;;26.43;24.13;;;;;;;21.47;37.59;94642.66;6220609;27;109229;-64
2023/03/22 02:05:27;;;;;;;23.93;21.93;;;;;;;21.47;37.29;94640.78;6213475;28;110061;-64
2023/03/22 02:08:34;;;;;;;25.70;23.30;;;;;;;21.48;37.23;94645.00;6209607;28;109315;-64
2023/03/22 02:11:42;;;;;;;23.83;21.83;;;;;;;21.49;37.67;94641.25;6206765;28;109238;-64
2023/03/22 02:15:04;;;;;;;23.13;21.17;;;;;;;21.51;37.53;94646.28;6232302;28;108949;-64
2023/03/22 02:18:24;;;;;;;22.10;20.20;;;;;;;21.48;37.63;94647.69;6234311;27;108842;-64
2023/03/22 02:21:46;;;;;;;21.63;19.83;;;;;;;21.46;37.61;94652.53;6220849;28;109352;-65
2023/03/22 02:25:34;;;;;;;22.40;20.50;;;;;;;21.43;37.62;94649.72;6220072;27;108708;-64
2023/03/22 02:28:50;;;;;;;21.80;20.00;;;;;;;21.44;37.17;94657.38;6128494;28;108823;-64
2023/03/22 02:32:57;;;;;;;22.03;20.13;;;;;;;21.43;37.19;94650.50;6216319;28;109080;-64
2023/03/22 02:36:30;;;;;;;19.50;17.87;;;;;;;21.44;37.23;94660.06;6129883;28;109119;-64
2023/03/22 02:39:45;;;;;;;20.50;18.80;;;;;;;21.40;37.43;94656.44;6144207;28;109132;-63
2023/03/22 02:42:58;;;;;;;19.53;17.83;;;;;;;21.39;37.46;94660.19;6211986;28;109266;-64
2023/03/22 02:46:11;;;;;;;19.13;17.57;;;;;;;21.40;37.19;94659.09;6215711;28;109270;-64
2023/03/22 02:49:22;;;;;;;18.40;16.90;;;;;;;21.39;37.30;94654.88;6235422;27;109822;-64
2023/03/22 02:52:32;;;;;;;17.70;16.30;;;;;;;21.46;36.87;94668.50;6235766;27;108986;-65
2023/03/22 02:55:47;;;;;;;17.87;16.37;;;;;;;21.50;36.81;94668.66;6200210;28;109204;-65
2023/03/22 02:58:56;;;;;;;16.53;15.13;;;;;;;21.51;37.04;94663.06;6225926;27;108951;-65
2023/03/22 03:02:06;;;;;;;17.73;16.23;;;;;;;21.54;37.00;94660.84;6239423;27;110072;-64
2023/03/22 03:05:15;;;;;;;16.80;15.40;;;;;;;21.49;37.23;94667.88;6239900;27;109653;-65
2023/03/22 03:08:24;;;;;;;16.30;14.80;;;;;;;21.49;37.06;94665.22;6217958;27;109972;-64
2023/03/22 03:11:29;;;;;;;14.90;13.60;;;;;;;21.49;37.13;94665.22;6215492;28;109039;-65
2023/03/22 03:14:35;;;;;;;16.33;14.83;;;;;;;21.49;37.23;94669.75;6217382;28;109086;-65
2023/03/22 03:17:53;;;;;;;14.97;13.70;;;;;;;21.48;37.09;94668.97;6222258;28;110913;-65
2023/03/22 03:21:07;;;;;;;14.43;13.20;;;;;;;21.49;36.86;94672.41;6230058;27;109188;-65
2023/03/22 03:24:23;;;;;;;14.13;13.00;;;;;;;21.46;37.40;94660.53;6223404;28;109854;-65
2023/03/22 03:27:38;;;;;;;12.60;11.57;;;;;;;21.47;37.00;94670.06;6215262;28;109067;-65
2023/03/22 03:30:51;;;;;;;13.60;12.50;;;;;;;21.48;37.22;94665.53;6204488;28;109138;-65
2023/03/22 03:34:05;;;;;;;12.63;11.63;;;;;;;21.45;37.44;94674.91;6229249;28;109203;-64
2023/03/22 03:37:17;;;;;;;13.30;12.20;;;;;;;21.44;37.25;94670.69;6237464;28;110091;-65
2023/03/22 03:40:29;;;;;;;13.20;12.10;;;;;;;21.44;37.08;94681.34;6222770;27;109329;-64
2023/03/22 03:43:40;;;;;;;12.00;11.03;;;;;;;21.44;37.39;94672.56;6214789;28;108992;-64
2023/03/22 03:46:47;;;;;;;12.20;11.20;;;;;;;21.43;37.14;94671.00;6224612;28;109039;-64
2023/03/22 03:49:52;;;;;;;12.17;11.17;;;;;;;21.42;37.40;94675.53;6237747;27;109502;-64
2023/03/22 03:53:00;;;;;;;11.97;10.97;;;;;;;21.43;37.15;94673.66;6204909;28;109181;-65
2023/03/22 03:56:08;;;;;;;11.77;10.87;;;;;;;21.44;37.13;94677.91;6214505;28;109190;-65
2023/03/22 03:59:16;;;;;;;11.20;10.17;;;;;;;21.42;36.98;94680.88;6215276;28;109128;-66
2023/03/22 04:02:21;;;;;;;11.00;10.00;;;;;;;21.44;37.11;94678.69;6236483;27;108962;-65
2023/03/22 04:05:26;;;;;;;10.53;9.63;;;;;;;21.44;37.40;94684.00;6229330;27;109038;-65
2023/03/22 04:08:34;;;;;;;10.27;9.37;;;;;;;21.45;36.73;94688.22;6238236;27;108915;-65
2023/03/22 04:11:40;;;;;;;10.73;9.87;;;;;;;21.47;36.85;94682.59;6229772;27;109157;-64
2023/03/22 04:14:48;;;;;;;9.47;8.67;;;;;;;21.48;36.82;94690.28;6203801;28;108989;-64
2023/03/22 04:17:52;;;;;;;7.87;7.27;;;;;;;21.35;37.80;94693.09;6216160;28;109205;-60
2023/03/22 04:20:58;;;;;;;4.47;4.17;;;;;;;21.17;37.65;94690.38;6217804;28;110124;-60
2023/03/22 04:24:06;;;;;;;5.17;4.77;;;;;;;21.03;38.26;94697.63;6215415;28;109018;-63
2023/03/22 04:27:12;;;;;;;3.83;3.53;;;;;;;21.03;37.81;94702.16;6228005;28;109785;-63
2023/03/22 04:30:21;;;;;;;3.13;2.90;;;;;;;21.02;37.90;94700.59;6225673;27;108969;-63
2023/03/22 04:33:31;;;;;;;3.80;3.50;;;;;;;20.99;38.05;94707.28;6214015;28;109190;-63
2023/03/22 04:36:41;;;;;;;3.13;2.93;;;;;;;20.91;37.93;94698.19;6212814;28;109066;-63
2023/03/22 04:39:46;;;;;;;3.20;3.00;;;;;;;20.90;38.68;94706.50;6206585;28;109220;-63
2023/03/22 04:42:50;;;;;;;2.80;2.60;;;;;;;20.90;38.44;94706.50;6233537;28;111372;-63
2023/03/22 04:46:00;;;;;;;2.80;2.60;;;;;;;20.96;38.28;94707.13;6238364;27;109164;-62
2023/03/22 04:49:08;;;;;;;3.10;2.90;;;;;;;21.03;38.03;94713.59;6228690;27;109688;-61
2023/03/22 04:52:12;;;;;;;2.60;2.40;;;;;;;20.83;38.61;94706.91;6212652;28;110095;-60
2023/03/22 04:55:19;;;;;;;3.13;2.70;;;;;;;20.74;39.25;94714.06;6228474;28;109892;-64
2023/03/22 04:58:26;;;;;;;2.40;2.20;;;;;;;20.88;38.30;94714.78;6229122;27;109360;-65
2023/03/22 05:01:33;;;;;;;3.17;2.97;;;;;;;20.86;38.37;94716.97;6224861;28;109617;-64
2023/03/22 05:04:37;;;;;;;3.90;3.70;;;;;;;20.85;38.83;94725.25;6237880;27;108995;-65
2023/03/22 05:07:41;;;;;;;4.13;3.17;;;;;;;20.89;39.10;94726.97;6237599;27;110408;-60
2023/03/22 05:10:46;;;;;;;6.47;2.87;;;;;;;21.00;40.83;94732.81;6237883;27;110169;-60
2023/03/22 05:13:49;;;;;;;3.40;2.80;;;;;;;21.04;39.59;94733.78;6223888;27;109449;-63
2023/03/22 05:16:55;;;;;;;3.60;2.83;;;;;;;21.10;39.07;94740.56;6227818;27;109008;-63
2023/03/22 05:20:08;;;;;;;3.00;2.80;;;;;;;21.05;39.40;94738.03;6235362;27;109755;-63
2023/03/22 05:23:19;;;;;;;2.87;2.67;;;;;;;20.98;39.02;94739.53;6228301;27;109137;-63
2023/03/22 05:26:25;;;;;;;2.73;2.53;;;;;;;20.91;38.67;94740.75;6237949;27;109718;-63
2023/03/22 05:29:35;;;;;;;3.57;2.63;;;;;;;20.92;38.51;94746.84;6238113;27;109049;-62
2023/03/22 05:32:43;;;;;;;3.20;2.93;;;;;;;20.87;38.63;94739.03;6237709;27;109850;-62
2023/03/22 05:35:51;;;;;;;3.07;2.77;;;;;;;20.87;38.30;94739.81;6226772;28;110128;-63
2023/03/22 05:38:58;;;;;;;3.07;2.77;;;;;;;20.84;38.45;94740.41;6237664;27;109194;-63
2023/03/22 05:42:06;;;;;;;3.20;2.90;;;;;;;20.85;38.44;94746.53;6237780;27;109847;-63
2023/03/22 05:45:11;;;;;;;2.87;2.67;;;;;;;20.81;38.58;94740.22;6235110;27;109129;-63
2023/03/22 05:48:21;;;;;;;3.03;2.73;;;;;;;20.78;38.31;94752.25;6231534;27;109330;-63
2023/03/22 05:51:28;;;;;;;2.97;2.77;;;;;;;20.77;38.52;94750.69;6237558;27;109110;-62
2023/03/22 05:54:35;;;;;;;3.40;3.10;;;;;;;20.81;38.33;94750.84;6237510;27;109985;-63
2023/03/22 05:57:42;;;;;;;3.00;2.80;;;;;;;20.74;38.37;94763.81;6226070;27;108690;-63
2023/03/22 06:00:48;;;;;;;3.03;2.83;;;;;;;20.76;38.35;94765.06;6237642;27;110230;-63
2023/03/22 06:03:54;;;;;;;3.27;2.97;;;;;;;20.75;38.43;94768.03;6236883;27;108932;-64
2023/03/22 06:06:59;;;;;;;3.10;2.90;;;;;;;20.74;38.43;94769.13;6236918;27;109262;-63
2023/03/22 06:10:08;;;;;;;3.20;3.00;;;;;;;20.75;38.15;94774.13;6226517;27;109067;-63
2023/03/22 06:13:17;;;;;;;2.93;2.73;;;;;;;20.74;38.42;94780.53;6237231;27;110251;-63
2023/03/22 06:16:25;;;;;;;3.23;3.03;;;;;;;20.71;38.19;94777.72;6237544;27;109425;-63
2023/03/22 06:19:33;;;;;;;4.90;4.37;;;;;;;20.68;38.20;94773.78;6231154;27;108948;-62
2023/03/22 06:22:39;;;;;;;3.30;3.00;;;;;;;20.68;38.30;94779.09;6230930;28;110200;-63
2023/03/22 06:25:44;;;;;;;3.10;2.90;;;;;;;20.66;38.41;94783.91;6236048;27;109248;-63
2023/03/22 06:28:49;;;;;;;3.63;3.20;;;;;;;20.57;38.60;94786.53;6236852;27;109241;-62
2023/03/22 06:31:54;;;;;;;3.20;3.00;;;;;;;20.59;38.52;94786.22;6224574;27;109005;-62
2023/03/22 06:35:04;;;;;;;4.10;3.70;;;;;;;20.63;38.46;94792.50;6237000;27;109353;-63
2023/03/22 06:38:13;;;;;;;4.90;4.50;;;;;;;20.60;38.47;94793.91;6236243;27;109257;-63
2023/03/22 06:41:22;;;;;;;5.40;4.90;;;;;;;20.63;38.60;94785.31;6236766;27;108923;-63
2023/03/22 06:44:30;;;;;;;4.60;4.27;;;;;;;20.65;38.56;94784.22;6226047;27;109254;-64
2023/03/22 06:47:39;;;;;;;5.23;4.40;;;;;;;20.65;38.66;94784.22;6236126;27;108923;-64
2023/03/22 06:50:48;;;;;;;5.30;4.80;;;;;;;20.63;38.54;94793.28;6236566;27;108995;-64
2023/03/22 06:53:54;;;;;;;5.27;4.77;;;;;;;20.66;38.48;94802.53;6231429;27;109540;-64
2023/03/22 06:57:00;;;;;;;5.00;4.60;;;;;;;20.63;38.72;94797.81;6230691;27;110496;-64
2023/03/22 07:00:05;;;;;;;5.37;4.87;;;;;;;20.66;38.59;94807.06;6235900;27;108916;-64
2023/03/22 07:03:11;;;;;;;4.87;4.20;;;;;;;20.68;38.65;94816.34;6236103;27;109082;-63
2023/03/22 07:06:18;;;;;;;3.63;3.33;;;;;;;20.64;38.73;94810.03;6225743;27;109428;-63
2023/03/22 07:09:25;;;;;;;4.77;4.30;;;;;;;20.64;38.87;94815.34;6235849;27;108917;-64
2023/03/22 07:12:30;;;;;;;4.30;3.90;;;;;;;20.60;38.90;94817.81;6236262;27;108992;-62
2023/03/22 07:15:40;;;;;;;4.13;3.80;;;;;;;20.58;38.89;94822.66;6236195;27;111287;-63
2023/03/22 07:18:45;;;;;;;3.87;3.57;;;;;;;20.59;38.92;94818.91;6225760;27;109485;-62
2023/03/22 07:22:00;;;;;;;3.80;3.50;;;;;;;20.61;39.00;94823.91;6236073;27;109078;-65
2023/03/22 07:25:13;;;;;;;4.27;3.97;;;;;;;20.63;38.89;94830.50;6236057;27;109002;-64
2023/03/22 07:28:26;;;;;;;3.40;3.17;;;;;;;20.65;38.46;94835.53;6228567;27;109029;-63
2023/03/22 07:31:36;;;;;;;3.67;3.30;;;;;;;20.63;38.68;94840.34;6235462;27;109057;-63
2023/03/22 07:34:48;;;;;;;3.50;3.20;;;;;;;20.67;38.20;94841.34;6236012;27;108888;-68
2023/03/22 07:37:59;;;;;;;3.07;2.87;;;;;;;20.65;38.57;94838.19;6235386;27;109608;-64
2023/03/22 07:41:08;;;;;;;2.83;2.63;;;;;;;20.69;38.42;94841.03;6224575;27;109130;-64
2023/03/22 07:44:19;;;;;;;3.37;3.10;;;;;;;20.70;38.35;94840.75;6237253;27;111681;-63
2023/03/22 07:47:27;;;;;;;3.10;2.90;;;;;;;20.71;38.26;94847.63;6239693;27;109072;-64
2023/03/22 07:50:49;;;;;;;3.70;3.40;;;;;;;20.71;38.72;94838.88;6235557;27;109536;-63
2023/03/22 07:53:59;;;;;;;3.27;3.07;;;;;;;20.74;38.45;94841.69;6233951;27;109427;-63
2023/03/22 07:57:15;;;;;;;3.23;2.93;;;;;;;20.72;38.83;94846.53;6239767;27;109332;-63
2023/03/22 08:00:29;;;;;;;3.90;3.50;;;;;;;20.71;38.94;94846.84;6240119;28;109122;-63
2023/03/22 08:03:43;;;;;;;3.37;3.10;;;;;;;20.71;38.74;94852.94;6229382;27;109777;-62
2023/03/22 08:06:57;;;;;;;3.80;3.50;;;;;;;20.68;40.95;94848.22;6239518;27;109019;-62
2023/03/22 08:10:09;;;;;;;4.43;3.90;;;;;;;20.72;39.67;94854.50;6239688;27;109963;-62
2023/03/22 08:13:19;;;;;;;3.70;3.40;;;;;;;20.70;38.88;94854.03;6239420;27;109529;-62
2023/03/22 08:16:28;;;;;;;3.70;3.40;;;;;;;20.71;40.30;94854.81;6228747;27;109004;-63
2023/03/22 08:19:34;;;;;;;4.07;3.63;;;;;;;20.73;39.55;94847.31;6240202;28;109056;-63
2023/03/22 08:22:38;;;;;;;3.60;3.30;;;;;;;20.72;40.68;94848.41;6239565;27;109965;-63
2023/03/22 08:25:45;;;;;;;3.70;3.40;;;;;;;20.76;40.05;94855.47;6232171;27;109851;-62
2023/03/22 08:28:51;;;;;;;3.73;3.50;;;;;;;20.72;39.20;94848.41;6238938;27;110222;-64
2023/03/22 08:32:02;;;;;;;3.90;3.60;;;;;;;20.66;39.68;94860.22;6238588;27;108850;-63
2023/03/22 08:35:16;;;;;;;3.37;3.17;;;;;;;20.58;39.44;94853.78;6239142;27;110030;-63
2023/03/22 08:38:29;;;;;;;4.30;3.90;;;;;;;20.53;39.44;94862.66;6227993;27;110209;-64
2023/03/22 08:41:40;;;;;;;5.90;4.40;;;;;;;20.51;39.26;94858.72;6239202;27;109234;-64
2023/03/22 08:44:51;;;;;;;5.10;4.60;;;;;;;20.52;39.04;94862.94;6238726;27;109331;-64
2023/03/22 08:48:00;;;;;;;4.23;3.93;;;;;;;20.46;39.07;94861.47;6235250;27;109372;-63
2023/03/22 08:51:11;;;;;;;4.57;4.27;;;;;;;20.50;39.12;94871.22;6233256;27;109814;-63
2023/03/22 08:54:19;;;;;;;4.67;4.37;;;;;;;20.47;39.38;94871.03;6239025;27;109088;-62
2023/03/22 08:57:31;;;;;;;4.60;4.20;;;;;;;20.47;39.02;94865.69;6238582;27;108817;-63
2023/03/22 09:00:46;;;;;;;4.60;4.30;;;;;;;20.50;38.89;94870.41;6227702;27;109210;-64
2023/03/22 09:03:55;;;;;;;4.63;4.33;;;;;;;20.48;39.04;94876.03;6238050;27;108876;-62
2023/03/22 09:07:08;;;;;;;4.50;4.17;;;;;;;20.48;39.19;94875.25;6238479;27;108985;-62
2023/03/22 09:10:19;;;;;;;4.60;4.23;;;;;;;20.47;39.18;94879.00;6237815;27;109044;-63
2023/03/22 09:13:33;;;;;;;4.70;4.40;;;;;;;20.36;39.71;94882.97;6227728;27;108969;-61
2023/03/22 09:16:40;;;;;;;5.17;4.77;;;;;;;20.15;40.14;94883.34;6238302;27;109113;-62
2023/03/22 09:19:52;;;;;;;5.87;5.30;;;;;;;20.05;40.27;94880.13;6238199;27;109364;-62
2023/03/22 09:23:18;;;;;;;5.50;5.00;;;;;;;19.97;40.49;94881.59;6227547;27;108994;-60
2023/03/22 09:26:30;;;;;;;5.50;5.10;;;;;;;19.96;40.25;94882.66;6238420;27;112259;-60
2023/03/22 09:29:44;;;;;;;5.30;4.90;;;;;;;19.89;40.38;94887.59;6238057;27;109107;-60
2023/03/22 09:32:56;;;;;;;5.53;4.60;;;;;;;19.88;40.60;94884.16;6238058;27;109209;-60
2023/03/22 09:36:08;;;;;;;5.20;4.80;;;;;;;19.86;40.36;94886.31;6225761;27;109380;-60
2023/03/22 09:39:17;;;;;;;5.70;4.50;;;;;;;19.85;40.34;94876.00;6237708;27;109010;-60
2023/03/22 09:42:37;;;;;;;5.23;4.73;;;;;;;19.83;40.38;94886.13;6237377;27;109049;-60
2023/03/22 09:45:50;;;;;;;4.10;3.80;;;;;;;19.81;40.43;94878.44;6229393;27;109063;-60
2023/03/22 09:49:01;;;;;;;4.63;4.23;;;;;;;19.80;40.59;94881.38;6237231;28;109176;-60
2023/03/22 09:52:17;;;;;;;7.00;4.07;;;;;;;19.83;40.60;94886.13;6237677;27;108999;-60
2023/03/22 09:55:40;;;;;;;4.27;3.97;;;;;;;19.84;40.79;94879.72;6237686;27;110208;-61
2023/03/22 09:58:58;;;;;;;4.77;4.33;;;;;;;19.84;40.36;94888.50;6226519;27;111178;-61
2023/03/22 10:02:29;;;;;;;5.20;4.80;;;;;;;19.87;40.46;94892.41;6237348;27;109104;-61
2023/03/22 10:05:43;;;;;;;5.53;5.03;;;;;;;19.89;40.35;94906.19;6237412;27;109525;-60
2023/03/22 10:09:05;;;;;;;6.17;5.53;;;;;;;19.87;40.60;94897.72;6225394;27;108788;-59
2023/03/22 10:12:23;;;;;;;5.90;5.40;;;;;;;19.80;40.62;94890.13;6237527;27;109052;-60
2023/03/22 10:15:40;;;;;;;5.83;5.43;;;;;;;19.79;40.50;94893.09;6237030;27;109222;-61
2023/03/22 10:18:58;;;;;;;5.70;5.30;;;;;;;19.74;40.25;94891.31;6237105;27;108958;-61
2023/03/22 10:22:13;;;;;;;4.90;4.60;;;;;;;19.75;40.44;94890.25;6226119;27;108921;-60
2023/03/22 10:25:33;;;;;;;5.43;5.10;;;;;;;19.77;40.43;94895.25;6236930;27;109136;-59
2023/03/22 10:28:50;;;;;;;5.13;4.73;;;;;;;19.79;40.47;94903.72;6237060;27;109421;-61
2023/03/22 10:32:04;;;;;;;5.63;5.13;;;;;;;19.76;40.61;94899.00;6226054;27;109187;-61
2023/03/22 10:35:18;;;;;;;4.93;4.47;;;;;;;19.82;40.37;94900.47;6236772;27;109023;-60
2023/03/22 10:38:29;;;;;;;4.70;4.40;;;;;;;19.79;40.19;94896.53;6236244;27;109235;-60
2023/03/22 10:41:38;;;;;;;5.90;5.30;;;;;;;19.78;40.18;94902.91;6236557;27;109299;-61
2023/03/22 10:44:57;;;;;;;5.63;5.23;;;;;;;19.77;40.13;94897.91;6226311;27;109290;-60
2023/03/22 10:48:07;;;;;;;4.80;4.50;;;;;;;19.79;40.14;94901.06;6236631;27;109076;-60
2023/03/22 10:51:29;;;;;;;5.10;4.70;;;;;;;19.79;40.34;94895.75;6236605;27;109728;-62
2023/03/22 10:54:40;;;;;;;5.10;4.70;;;;;;;19.81;40.13;94897.00;6226193;27;109113;-60
2023/03/22 10:57:56;;;;;;;4.90;4.50;;;;;;;19.77;40.13;94893.38;6236209;27;108977;-60
2023/03/22 11:01:11;;;;;;;4.87;4.50;;;;;;;19.77;40.14;94887.28;6236337;27;109053;-60
2023/03/22 11:04:20;;;;;;;4.30;4.00;;;;;;;19.80;39.82;94889.34;6236408;27;108961;-61
2023/03/22 11:07:33;;;;;;;4.50;4.20;;;;;;;19.82;39.83;94889.84;6225607;27;110448;-60
2023/03/22 11:10:41;;;;;;;4.30;3.90;;;;;;;19.78;39.91;94892.31;6236261;27;109392;-59
2023/03/22 11:14:01;;;;;;;4.47;4.13;;;;;;;19.77;39.70;94888.06;6236107;27;109029;-60
2023/03/22 11:17:15;;;;;;;4.33;4.03;;;;;;;19.74;40.03;94888.66;6230457;27;108996;-60
2023/03/22 11:20:27;;;;;;;4.67;4.37;;;;;;;19.75;39.87;94886.78;6237189;27;108970;-61
2023/03/22 11:23:45;;;;;;;4.67;4.30;;;;;;;19.77;39.58;94881.97;6240681;27;108745;-61
2023/03/22 11:27:07;;;;;;;4.43;4.03;;;;;;;19.72;39.66;94875.69;6240323;27;108824;-60
2023/03/22 11:30:21;;;;;;;4.20;3.90;;;;;;;19.77;39.73;94881.97;6229501;27;110226;-61
2023/03/22 11:33:31;;;;;;;4.57;3.70;;;;;;;19.75;39.49;94876.97;6240352;27;109630;-60
2023/03/22 11:36:49;;;;;;;5.33;3.70;;;;;;;19.73;39.52;94882.56;6240125;27;109383;-60
2023/03/22 11:40:09;;;;;;;5.10;4.70;;;;;;;19.77;39.47;94884.63;6234988;27;108894;-62
2023/03/22 11:43:23;;;;;;;6.60;3.90;;;;;;;19.77;39.36;94876.66;6239834;27;109386;-61
2023/03/22 11:46:38;;;;;;;4.73;4.00;;;;;;;19.75;39.28;94879.63;6239825;27;110809;-61
2023/03/22 11:49:53;;;;;;;3.90;3.60;;;;;;;19.70;39.38;94877.84;6240098;27;108945;-61
2023/03/22 11:53:11;;;;;;;4.57;4.13;;;;;;;19.71;39.37;94873.34;6228682;27;109039;-61
2023/03/22 11:56:29;;;;;;;5.13;4.30;;;;;;;19.66;39.38;94871.56;6239781;27;109128;-60
2023/03/22 11:59:47;;;;;;;5.03;4.50;;;;;;;19.66;39.06;94887.50;6239919;27;109396;-60
2023/03/22 12:02:59;;;;;;;4.97;4.57;;;;;;;19.66;39.37;94881.41;6233260;27;110315;-60
2023/03/22 12:06:16;;;;;;;5.90;5.40;;;;;;;19.66;39.55;94884.06;6239272;27;109513;-64
2023/03/22 12:09:40;;;;;;;6.10;5.60;;;;;;;19.66;39.37;94886.72;6239320;27;109023;-61
2023/03/22 12:13:03;;;;;;;6.47;5.87;;;;;;;19.61;39.46;94884.13;6239711;27;109555;-60
2023/03/22 12:16:16;;;;;;;5.93;5.37;;;;;;;19.60;39.45;94879.91;6228484;27;110141;-60
2023/03/22 12:19:47;;;;;;;5.37;4.97;;;;;;;19.62;39.54;94878.53;6214465;28;109023;-60
2023/03/22 12:22:55;;;;;;;5.90;5.40;;;;;;;19.64;39.48;94876.34;6214742;28;110009;-61
2023/03/22 12:26:07;;;;;;;5.57;5.07;;;;;;;19.67;39.65;94870.47;6204713;28;109767;-61
2023/03/22 12:29:20;;;;;;;5.53;5.13;;;;;;;19.65;39.58;94875.28;6213855;28;109001;-61
2023/03/22 12:32:40;;;;;;;5.07;4.67;;;;;;;19.67;39.64;94882.97;6214071;28;109192;-61
2023/03/22 12:35:52;;;;;;;6.70;6.10;;;;;;;19.62;39.76;94875.88;6213021;28;109036;-61
2023/03/22 12:39:06;;;;;;;6.10;5.50;;;;;;;19.61;39.85;94866.31;6203539;28;109200;-61
2023/03/22 12:42:22;;;;;;;6.57;6.00;;;;;;;19.57;39.93;94865.34;6214506;28;109042;-61
2023/03/22 12:45:45;;;;;;;6.63;5.60;;;;;;;19.63;39.68;94863.38;6213320;28;109010;-61
2023/03/22 12:49:00;;;;;;;6.67;6.00;;;;;;;19.61;39.78;94853.06;6227670;28;109390;-60
2023/03/22 12:52:19;;;;;;;6.30;5.70;;;;;;;19.69;39.88;94860.34;6239745;27;109166;-62
2023/03/22 12:55:30;;;;;;;6.20;5.80;;;;;;;19.74;39.79;94864.78;6240076;27;110380;-64
2023/03/22 12:58:38;;;;;;;6.27;5.77;;;;;;;19.75;39.81;94860.25;6239959;27;109894;-61
2023/03/22 13:01:53;;;;;;;6.47;5.90;;;;;;;19.76;40.13;94854.63;6227468;27;109368;-67
2023/03/22 13:05:03;;;;;;;6.50;6.00;;;;;;;19.75;39.86;94857.59;6239347;27;109008;-60
2023/03/22 13:08:18;;;;;;;7.13;6.60;;;;;;;19.83;40.02;94856.91;6239582;27;109856;-60
2023/03/22 13:11:24;;;;;;;5.87;5.47;;;;;;;19.83;39.81;94859.56;6234519;27;109094;-62
2023/03/22 13:14:59;;;;;;;7.13;6.27;;;;;;;19.81;39.95;94856.41;6236269;27;109319;-59
2023/03/22 13:21:49;;;;;;;6.10;5.70;;;;;;;19.78;39.96;94852.47;6262048;27;108542;-61
2023/03/22 13:25:08;;;;;;;5.90;5.43;;;;;;;19.77;39.94;94855.44;6249091;27;109170;-61
2023/03/22 13:28:35;;;;;;;6.87;6.27;;;;;;;19.75;40.04;94845.09;6260267;27;109199;-60
2023/03/22 13:31:47;;;;;;;5.57;5.07;;;;;;;19.75;40.04;94837.13;6259844;27;108708;-61
2023/03/22 13:34:53;;;;;;;5.97;5.57;;;;;;;19.76;40.01;94848.53;6249374;27;108936;-61
2023/03/22 13:38:10;;;;;;;6.40;5.90;;;;;;;19.75;39.99;94847.75;6259600;27;108949;-61
2023/03/22 13:41:29;;;;;;;5.90;5.40;;;;;;;19.73;40.23;94856.03;6259288;27;108905;-60
2023/03/22 13:44:46;;;;;;;5.50;5.10;;;;;;;19.73;40.22;94856.03;6259064;27;108909;-60
2023/03/22 13:48:31;;;;;;;5.47;4.97;;;;;;;19.76;40.16;94861.81;6248637;27;109966;-61
2023/03/22 13:51:49;;;;;;;5.33;4.93;;;;;;;19.75;40.58;94860.25;6259055;27;109103;-60
2023/03/22 13:55:03;;;;;;;5.03;4.70;;;;;;;19.73;40.95;94866.63;6258658;27;109053;-61
2023/03/22 13:58:40;;;;;;;5.50;5.10;;;;;;;19.72;41.23;94859.75;6248761;27;109005;-60
2023/03/22 14:01:52;;;;;;;5.43;5.03;;;;;;;19.70;41.37;94855.84;6258247;27;109438;-60
2023/03/22 14:05:10;;;;;;;5.80;5.30;;;;;;;19.75;41.61;94854.94;6258215;27;109362;-60
2023/03/22 14:08:24;;;;;;;5.63;4.97;;;;;;;19.76;41.39;94853.84;6253671;27;109066;-60
2023/03/22 14:11:44;;;;;;;6.17;5.67;;;;;;;19.78;41.57;94862.31;6252431;27;108974;-60
2023/03/22 14:15:01;;;;;;;5.97;5.47;;;;;;;19.77;41.52;94863.41;6258144;27;109347;-60
2023/03/22 14:18:23;;;;;;;6.50;6.00;;;;;;;19.75;41.62;94858.38;6257500;27;109626;-60
2023/03/22 14:21:37;;;;;;;6.33;5.73;;;;;;;19.73;41.87;94856.03;6247268;27;109762;-60
2023/03/22 14:24:49;;;;;;;6.50;6.00;;;;;;;19.76;41.74;94854.63;6257335;27;108912;-60
2023/03/22 14:28:00;;;;;;;6.67;6.17;;;;;;;19.74;41.64;94856.81;6253689;27;108748;-60
2023/03/22 14:31:05;;;;;;;6.10;5.60;;;;;;;19.69;41.96;94849.72;6242944;27;108673;-60
2023/03/22 14:34:13;;;;;;;5.57;5.07;;;;;;;19.71;41.62;94860.06;6234937;28;108878;-62
2023/03/22 14:37:22;;;;;;;4.77;4.37;;;;;;;19.67;41.54;94862.53;6236692;28;108688;-62
2023/03/22 14:40:33;;;;;;;4.90;4.50;;;;;;;19.66;41.26;94860.94;6236383;27;108865;-61
2023/03/22 14:43:41;;;;;;;5.23;4.73;;;;;;;19.61;41.42;94861.03;6227673;27;108802;-61
2023/03/22 14:46:51;;;;;;;5.80;5.00;;;;;;;19.61;41.44;94868.19;6236424;27;108684;-61
2023/03/22 14:50:00;;;;;;;4.60;4.30;;;;;;;19.64;41.39;94871.03;6239488;27;108859;-61